Time;durP1;ratioP1;P1;durP2;ratioP2;P2;SDS_P1;SDS_P2;PMS_P1;PMS_P2;Temp;Humidity;BMP_temperature;BMP_pressure;BME280_temperature;BME280_humidity;BME280_pressure;Samples;Min_cycle;Max_cycle;Signal;HPM_P1;HPM_P2
2023/02/02 00:01:55;;;;;;;23.83;17.08;;;9.50;99.90;;;;;;5000734;28;20388;-87
2023/02/02 00:04:33;;;;;;;23.30;16.70;;;9.40;99.90;;;;;;4994261;28;20046;-87
2023/02/02 00:06:59;;;;;;;23.75;17.25;;;9.50;99.90;;;;;;4994243;28;20289;-87
2023/02/02 00:09:27;;;;;;;25.30;16.98;;;9.60;99.90;;;;;;5007928;28;20034;-87
2023/02/02 00:11:54;;;;;;;31.80;17.33;;;9.60;99.90;;;;;;5008778;28;20046;-87
2023/02/02 00:14:20;;;;;;;25.60;16.75;;;9.50;99.90;;;;;;4993581;28;20050;-87
2023/02/02 00:16:50;;;;;;;28.88;17.58;;;9.40;99.90;;;;;;4994854;28;20045;-87
2023/02/02 00:19:18;;;;;;;30.10;17.67;;;9.40;99.90;;;;;;5011919;28;20042;-87
2023/02/02 00:21:44;;;;;;;26.48;17.33;;;9.40;99.90;;;;;;5012714;28;20372;-87
2023/02/02 00:24:12;;;;;;;28.92;17.00;;;9.40;99.90;;;;;;4997360;28;20053;-87
2023/02/02 00:26:39;;;;;;;31.27;16.25;;;9.40;99.90;;;;;;4994551;28;20037;-88
2023/02/02 00:29:05;;;;;;;25.92;16.48;;;9.40;99.90;;;;;;5010030;28;20463;-87
2023/02/02 00:31:32;;;;;;;30.00;17.55;;;9.50;99.90;;;;;;4997272;28;20042;-87
2023/02/02 00:33:58;;;;;;;26.63;16.67;;;9.50;99.90;;;;;;5012291;28;20049;-87
2023/02/02 00:36:25;;;;;;;23.48;16.40;;;9.60;99.90;;;;;;5013224;28;20038;-87
2023/02/02 00:38:52;;;;;;;22.50;16.30;;;9.60;99.90;;;;;;5011936;28;20030;-84
2023/02/02 00:41:18;;;;;;;27.77;17.30;;;9.60;99.90;;;;;;4996555;28;20046;-86
2023/02/02 00:43:47;;;;;;;21.67;16.23;;;9.60;99.90;;;;;;5009009;28;20391;-86
2023/02/02 00:46:13;;;;;;;21.08;17.10;;;9.60;99.90;;;;;;4995885;28;20494;-86
2023/02/02 00:48:40;;;;;;;28.58;17.90;;;9.60;99.90;;;;;;5011601;28;20041;-86
2023/02/02 00:51:06;;;;;;;23.73;15.88;;;9.60;99.90;;;;;;4995446;28;20041;-86
2023/02/02 00:53:32;;;;;;;20.38;16.30;;;9.70;99.90;;;;;;4991875;28;20046;-86
2023/02/02 00:55:58;;;;;;;24.48;16.95;;;9.70;99.90;;;;;;5012603;28;20495;-86
2023/02/02 00:58:24;;;;;;;23.08;16.92;;;9.70;99.90;;;;;;4996585;28;20044;-86
2023/02/02 01:00:51;;;;;;;26.38;17.80;;;9.70;99.90;;;;;;5012241;28;20038;-86
2023/02/02 01:03:17;;;;;;;23.77;17.17;;;9.70;99.90;;;;;;5028648;28;20046;-86
2023/02/02 01:05:43;;;;;;;23.23;17.13;;;9.70;99.90;;;;;;5011906;28;20053;-86
2023/02/02 01:08:09;;;;;;;25.90;16.35;;;9.60;99.90;;;;;;5012285;28;20038;-86
2023/02/02 01:10:35;;;;;;;22.65;17.65;;;9.70;99.90;;;;;;4998986;28;20038;-86
2023/02/02 01:13:01;;;;;;;21.20;17.05;;;9.70;99.90;;;;;;4992454;28;20488;-85
2023/02/02 01:15:29;;;;;;;20.30;17.27;;;9.70;99.90;;;;;;4998906;28;20043;-86
2023/02/02 01:17:56;;;;;;;26.17;16.65;;;9.60;99.90;;;;;;5003875;28;20030;-86
2023/02/02 01:20:23;;;;;;;27.60;16.92;;;9.50;99.90;;;;;;4994138;28;20041;-86
2023/02/02 01:22:49;;;;;;;25.30;17.05;;;9.40;99.90;;;;;;5012449;28;20471;-86
2023/02/02 01:25:15;;;;;;;24.27;16.58;;;9.30;99.90;;;;;;5012252;28;20041;-85
2023/02/02 01:27:41;;;;;;;20.70;16.23;;;9.40;99.90;;;;;;5011957;28;20026;-86
2023/02/02 01:30:08;;;;;;;22.02;16.98;;;9.40;99.90;;;;;;5012419;28;20042;-86
2023/02/02 01:32:34;;;;;;;22.60;16.90;;;9.30;99.90;;;;;;4999051;28;20376;-86
2023/02/02 01:35:00;;;;;;;26.73;17.20;;;9.40;99.90;;;;;;5014149;28;20056;-86
2023/02/02 01:37:26;;;;;;;18.85;15.68;;;9.40;99.90;;;;;;5014831;28;20045;-86
2023/02/02 01:39:52;;;;;;;21.85;16.50;;;9.40;99.90;;;;;;4985085;28;20030;-86
2023/02/02 01:42:22;;;;;;;21.85;16.05;;;9.40;99.90;;;;;;4995811;28;20045;-85
2023/02/02 01:44:51;;;;;;;25.77;16.63;;;9.40;99.90;;;;;;5014334;28;20513;-86
2023/02/02 01:47:18;;;;;;;22.38;16.40;;;9.30;99.90;;;;;;5031157;28;20029;-85
2023/02/02 01:49:44;;;;;;;24.98;17.05;;;9.30;99.90;;;;;;5014245;28;20034;-86
2023/02/02 01:52:11;;;;;;;24.15;16.30;;;9.30;99.90;;;;;;4997066;28;20525;-86
2023/02/02 01:54:39;;;;;;;25.20;16.42;;;9.30;99.90;;;;;;5014040;28;20037;-86
2023/02/02 01:57:12;;;;;;;22.15;15.75;;;9.30;99.90;;;;;;5015264;28;20041;-86
2023/02/02 01:59:38;;;;;;;25.80;16.63;;;9.30;99.90;;;;;;4997930;28;20068;-87
2023/02/02 02:02:04;;;;;;;27.98;15.80;;;9.40;99.90;;;;;;5012275;28;20033;-87
2023/02/02 02:04:30;;;;;;;35.25;17.15;;;9.40;99.90;;;;;;4993301;28;20057;-86
2023/02/02 02:06:57;;;;;;;28.42;16.45;;;9.40;99.90;;;;;;4997496;28;20041;-85
2023/02/02 02:09:23;;;;;;;26.65;16.17;;;9.40;99.90;;;;;;4994787;28;20521;-86
2023/02/02 02:11:54;;;;;;;25.25;16.55;;;9.10;99.90;;;;;;5028906;28;20041;-86
2023/02/02 02:17:27;;;;;;;24.50;16.00;;;9.10;99.90;;;;;;5007976;28;20037;-86
2023/02/02 02:29:09;;;;;;;22.25;15.15;;;9.30;99.90;;;;;;5032494;28;20040;-85
2023/02/02 02:31:57;;;;;;;22.15;16.05;;;9.30;99.90;;;;;;5026090;28;20038;-86
2023/02/02 02:34:42;;;;;;;19.00;15.90;;;9.30;99.90;;;;;;5009813;28;20041;-85
2023/02/02 02:37:11;;;;;;;26.65;16.42;;;9.30;99.90;;;;;;5023497;28;20037;-86
2023/02/02 02:40:01;;;;;;;21.83;16.00;;;9.40;99.90;;;;;;4993490;28;20050;-85
2023/02/02 02:42:29;;;;;;;22.90;15.77;;;9.40;99.90;;;;;;4978561;28;20034;-85
2023/02/02 02:44:55;;;;;;;24.65;16.17;;;9.30;99.90;;;;;;5009953;28;20430;-85
2023/02/02 02:47:21;;;;;;;30.73;16.65;;;9.40;99.90;;;;;;5014020;28;20037;-86
2023/02/02 02:49:47;;;;;;;24.17;15.98;;;9.30;99.90;;;;;;5012916;28;20036;-86
2023/02/02 02:52:14;;;;;;;21.58;15.93;;;9.30;99.90;;;;;;5012577;28;20041;-85
2023/02/02 02:54:50;;;;;;;30.27;15.80;;;9.20;99.90;;;;;;5012483;28;20479;-86
2023/02/02 02:57:40;;;;;;;19.90;15.85;;;9.30;99.90;;;;;;4992997;28;20041;-86
2023/02/02 03:00:28;;;;;;;25.00;15.82;;;9.30;99.90;;;;;;5011822;28;20516;-86
2023/02/02 03:03:21;;;;;;;18.77;16.02;;;9.30;99.90;;;;;;5005407;28;20037;-85
2023/02/02 03:06:22;;;;;;;22.50;15.43;;;9.40;99.90;;;;;;5024770;28;20050;-86
2023/02/02 03:08:55;;;;;;;24.38;15.23;;;9.20;99.90;;;;;;5005518;28;20041;-86
2023/02/02 03:11:22;;;;;;;21.95;15.00;;;9.30;99.90;;;;;;5005169;28;20383;-86
2023/02/02 03:13:48;;;;;;;19.40;14.85;;;9.30;99.90;;;;;;5030768;28;20037;-86
2023/02/02 03:16:14;;;;;;;25.35;15.23;;;9.30;99.90;;;;;;5006789;28;20041;-86
2023/02/02 03:18:40;;;;;;;23.75;15.65;;;9.30;99.90;;;;;;5011918;28;20046;-86
2023/02/02 03:21:06;;;;;;;23.80;16.48;;;9.20;99.90;;;;;;5006828;28;20050;-86
2023/02/02 03:23:33;;;;;;;24.23;14.95;;;9.30;99.90;;;;;;5013834;28;20037;-85
2023/02/02 03:25:59;;;;;;;23.05;16.20;;;9.30;99.90;;;;;;4997363;28;20029;-86
2023/02/02 03:28:25;;;;;;;24.17;15.30;;;9.30;99.90;;;;;;5014996;28;20159;-87
2023/02/02 03:30:51;;;;;;;27.35;16.20;;;9.30;99.90;;;;;;4981711;28;20520;-84
2023/02/02 03:33:17;;;;;;;23.42;15.60;;;9.30;99.90;;;;;;5009876;28;20049;-86
2023/02/02 03:35:44;;;;;;;19.02;15.35;;;9.30;99.90;;;;;;5013926;28;20053;-86
2023/02/02 03:38:11;;;;;;;21.60;15.07;;;9.30;99.90;;;;;;5026953;28;20036;-86
2023/02/02 03:40:38;;;;;;;23.80;17.42;;;9.30;99.90;;;;;;5015534;28;20036;-85
2023/02/02 03:43:04;;;;;;;26.92;15.13;;;9.30;99.90;;;;;;5003981;28;20069;-86
2023/02/02 03:45:31;;;;;;;23.00;15.38;;;9.30;99.90;;;;;;5011617;28;20037;-86
2023/02/02 03:47:57;;;;;;;21.45;15.40;;;9.30;99.90;;;;;;4998127;28;20038;-86
2023/02/02 03:50:24;;;;;;;18.60;15.27;;;9.30;99.90;;;;;;5011011;28;20041;-86
2023/02/02 03:52:50;;;;;;;23.27;16.52;;;9.30;99.90;;;;;;5034755;28;20044;-86
2023/02/02 03:55:16;;;;;;;30.67;16.77;;;9.30;99.90;;;;;;5016550;28;20045;-87
2023/02/02 03:57:42;;;;;;;26.33;17.13;;;9.30;99.90;;;;;;5011039;28;20039;-86
2023/02/02 04:00:09;;;;;;;27.45;16.77;;;9.30;99.90;;;;;;5022280;28;20045;-85
2023/02/02 04:02:35;;;;;;;20.58;16.65;;;9.30;99.90;;;;;;5030770;28;20394;-86
2023/02/02 04:05:01;;;;;;;25.42;17.15;;;9.30;99.90;;;;;;5015830;28;20068;-86
2023/02/02 04:07:27;;;;;;;20.90;16.55;;;9.30;99.90;;;;;;5033455;28;20395;-86
2023/02/02 04:09:53;;;;;;;23.90;17.92;;;9.30;99.90;;;;;;5015758;28;20044;-85
2023/02/02 04:12:19;;;;;;;23.50;16.35;;;9.30;99.90;;;;;;5011546;28;20396;-85
2023/02/02 04:14:45;;;;;;;21.60;16.20;;;9.20;99.90;;;;;;5022011;28;20044;-86
2023/02/02 04:17:11;;;;;;;21.55;14.98;;;9.20;99.90;;;;;;5015748;28;20043;-85
2023/02/02 04:19:37;;;;;;;17.38;15.50;;;9.20;99.90;;;;;;5015392;28;20396;-86
2023/02/02 04:22:04;;;;;;;24.63;16.17;;;9.20;99.90;;;;;;5014625;28;20030;-85
2023/02/02 04:24:30;;;;;;;20.73;15.52;;;9.20;99.90;;;;;;5015489;28;20399;-86
2023/02/02 04:26:56;;;;;;;20.65;15.18;;;9.20;99.90;;;;;;5016943;28;20482;-85
2023/02/02 04:29:22;;;;;;;25.70;16.33;;;9.20;99.90;;;;;;5015590;28;20033;-86
2023/02/02 04:31:48;;;;;;;24.15;15.27;;;9.20;99.90;;;;;;5002526;28;20407;-85
2023/02/02 04:34:14;;;;;;;24.27;15.45;;;9.20;99.90;;;;;;5011855;28;20037;-86
2023/02/02 04:36:40;;;;;;;18.55;16.20;;;9.20;99.90;;;;;;5011348;28;20061;-85
2023/02/02 04:39:09;;;;;;;20.10;15.80;;;9.20;99.90;;;;;;5005447;28;20041;-84
2023/02/02 04:41:35;;;;;;;16.58;14.88;;;9.10;99.90;;;;;;5008638;28;20414;-86
2023/02/02 04:44:01;;;;;;;22.65;14.98;;;8.90;99.90;;;;;;5013125;28;21326;-85
2023/02/02 04:46:27;;;;;;;28.90;16.10;;;9.00;99.90;;;;;;5016322;28;20037;-87
2023/02/02 04:48:53;;;;;;;18.27;14.98;;;9.10;99.90;;;;;;5010121;28;20261;-84
2023/02/02 04:51:19;;;;;;;21.50;16.15;;;9.10;99.90;;;;;;4985849;28;20034;-87
2023/02/02 04:53:45;;;;;;;24.23;15.98;;;9.00;99.90;;;;;;5008437;28;20040;-85
2023/02/02 04:56:16;;;;;;;17.60;15.23;;;9.10;99.90;;;;;;5034950;28;20052;-87
2023/02/02 04:58:42;;;;;;;25.13;16.23;;;9.10;99.90;;;;;;5002558;28;20041;-89
2023/02/02 05:01:16;;;;;;;22.08;15.10;;;9.10;99.90;;;;;;5014389;28;20038;-85
2023/02/02 05:03:42;;;;;;;32.55;15.75;;;9.10;99.90;;;;;;4995174;28;20426;-85
2023/02/02 05:06:08;;;;;;;22.15;15.15;;;9.10;99.90;;;;;;5028791;28;20068;-86
2023/02/02 05:08:35;;;;;;;27.10;16.40;;;9.10;99.90;;;;;;5032356;28;20026;-87
2023/02/02 05:11:12;;;;;;;26.10;15.45;;;9.10;99.90;;;;;;5016724;28;20033;-85
2023/02/02 05:13:38;;;;;;;19.77;15.00;;;9.10;99.90;;;;;;5016146;28;20032;-85
2023/02/02 05:16:05;;;;;;;24.38;15.25;;;9.10;99.90;;;;;;5012397;28;20044;-85
2023/02/02 05:18:31;;;;;;;22.25;14.75;;;9.00;99.90;;;;;;5014650;28;20544;-86
2023/02/02 05:21:01;;;;;;;21.45;15.20;;;9.10;99.90;;;;;;5014492;28;20034;-87
2023/02/02 05:23:27;;;;;;;22.52;15.13;;;9.10;99.90;;;;;;5014948;28;20470;-85
2023/02/02 05:25:53;;;;;;;21.83;15.27;;;9.10;99.90;;;;;;5011303;28;20470;-86
2023/02/02 05:28:23;;;;;;;18.30;14.93;;;9.10;99.90;;;;;;5014113;28;20367;-85
2023/02/02 05:30:49;;;;;;;22.38;16.25;;;9.10;99.90;;;;;;5011788;28;20036;-86
2023/02/02 05:33:17;;;;;;;17.33;15.38;;;9.10;99.90;;;;;;4999691;28;20030;-86
2023/02/02 05:35:47;;;;;;;18.52;15.13;;;9.10;99.90;;;;;;4996150;28;20038;-87
2023/02/02 05:38:13;;;;;;;19.27;13.95;;;9.20;99.90;;;;;;5013263;28;20033;-87
2023/02/02 05:40:39;;;;;;;21.10;14.40;;;9.10;99.90;;;;;;4979725;28;20383;-86
2023/02/02 05:43:05;;;;;;;23.58;15.13;;;9.00;99.90;;;;;;4971391;28;20033;-86
2023/02/02 05:45:31;;;;;;;19.48;15.48;;;9.00;99.90;;;;;;5013715;28;20041;-85
2023/02/02 05:47:58;;;;;;;20.98;14.85;;;9.00;99.90;;;;;;5015257;28;20042;-86
2023/02/02 05:50:24;;;;;;;21.02;15.63;;;9.00;99.90;;;;;;5015121;28;20038;-86
2023/02/02 05:52:50;;;;;;;20.13;16.05;;;9.10;99.90;;;;;;5015522;28;20034;-87
2023/02/02 05:55:17;;;;;;;16.50;15.00;;;9.10;99.90;;;;;;5014905;28;20037;-86
2023/02/02 05:57:43;;;;;;;20.45;14.98;;;9.20;99.90;;;;;;5014725;28;20044;-86
2023/02/02 06:00:10;;;;;;;19.75;15.02;;;9.10;99.90;;;;;;4994589;28;20033;-86
2023/02/02 06:02:36;;;;;;;18.17;15.30;;;9.00;99.90;;;;;;4995516;28;20026;-86
2023/02/02 06:05:02;;;;;;;22.52;15.32;;;8.90;99.90;;;;;;4991939;28;20061;-87
2023/02/02 06:07:28;;;;;;;18.75;14.20;;;8.90;99.90;;;;;;4999690;28;20407;-87
2023/02/02 06:09:54;;;;;;;24.20;15.63;;;8.90;99.90;;;;;;4995626;28;20423;-86
2023/02/02 06:12:20;;;;;;;18.58;15.15;;;8.90;99.90;;;;;;5027476;28;20041;-87
2023/02/02 06:14:46;;;;;;;16.85;15.07;;;9.00;99.90;;;;;;4995021;28;20041;-86
2023/02/02 06:17:12;;;;;;;24.70;16.13;;;9.10;99.90;;;;;;5027092;28;20038;-86
2023/02/02 06:19:39;;;;;;;25.08;14.13;;;9.10;99.90;;;;;;4994526;28;20034;-87
2023/02/02 06:22:05;;;;;;;20.08;15.77;;;9.20;99.90;;;;;;5012581;28;20034;-87
2023/02/02 06:24:31;;;;;;;19.38;14.80;;;9.20;99.90;;;;;;4994807;28;20475;-87
2023/02/02 06:26:57;;;;;;;23.88;15.30;;;9.20;99.90;;;;;;5012596;28;20025;-87
2023/02/02 06:29:24;;;;;;;21.00;14.57;;;9.10;99.90;;;;;;4994935;28;20389;-87
2023/02/02 06:31:50;;;;;;;20.30;15.32;;;9.00;99.90;;;;;;5010968;28;20041;-87
2023/02/02 06:34:16;;;;;;;27.45;19.20;;;9.00;99.90;;;;;;4998572;28;20042;-86
2023/02/02 06:36:42;;;;;;;50.25;30.60;;;8.90;99.90;;;;;;4991699;28;20046;-86
2023/02/02 06:39:08;;;;;;;24.98;19.58;;;8.90;99.90;;;;;;5000790;28;20277;-87
2023/02/02 06:41:34;;;;;;;41.03;25.00;;;8.90;99.90;;;;;;4999048;28;20030;-87
2023/02/02 06:44:00;;;;;;;41.20;22.42;;;9.00;99.90;;;;;;4998957;28;20030;-86
2023/02/02 06:46:27;;;;;;;30.75;18.05;;;8.90;99.90;;;;;;4998664;28;20399;-86
2023/02/02 06:48:53;;;;;;;28.48;18.45;;;8.90;99.90;;;;;;4999014;28;20375;-86
2023/02/02 06:51:19;;;;;;;17.35;15.73;;;8.90;99.90;;;;;;4982654;28;20045;-86
2023/02/02 06:53:48;;;;;;;138.05;62.65;;;8.90;99.90;;;;;;4997427;28;20045;-86
2023/02/02 06:56:14;;;;;;;83.53;43.80;;;9.00;99.90;;;;;;4998227;28;20041;-86
2023/02/02 06:58:40;;;;;;;61.92;33.80;;;9.10;99.90;;;;;;5013977;28;20037;-86
2023/02/02 07:01:12;;;;;;;39.85;26.90;;;9.10;99.90;;;;;;5010904;28;20526;-86
2023/02/02 07:03:38;;;;;;;32.38;20.77;;;9.10;99.90;;;;;;4995704;28;20025;-86
2023/02/02 07:06:15;;;;;;;21.35;17.02;;;9.10;99.90;;;;;;4998736;28;20041;-86
2023/02/02 07:08:41;;;;;;;20.75;16.92;;;9.10;99.90;;;;;;4998661;28;20033;-86
2023/02/02 07:11:07;;;;;;;25.48;16.20;;;8.90;99.90;;;;;;4998672;28;20030;-86
2023/02/02 07:13:33;;;;;;;21.08;16.48;;;8.90;99.90;;;;;;5013942;28;20029;-84
2023/02/02 07:16:00;;;;;;;24.90;17.45;;;8.90;99.90;;;;;;5006399;28;20053;-85
2023/02/02 07:18:26;;;;;;;22.38;15.13;;;8.90;99.90;;;;;;5006338;28;20038;-86
2023/02/02 07:20:52;;;;;;;21.92;14.95;;;9.00;99.90;;;;;;5015118;28;20064;-85
2023/02/02 07:23:18;;;;;;;22.83;15.32;;;9.00;99.90;;;;;;5017688;28;20049;-87
2023/02/02 07:25:44;;;;;;;19.05;14.07;;;9.10;99.90;;;;;;5006520;28;20030;-85
2023/02/02 07:28:10;;;;;;;17.65;14.80;;;9.10;99.90;;;;;;5017174;28;20030;-87
2023/02/02 07:30:36;;;;;;;16.80;15.30;;;9.10;99.90;;;;;;5016704;28;20049;-84
2023/02/02 07:33:02;;;;;;;19.48;13.82;;;9.10;99.90;;;;;;5018060;28;20041;-86
2023/02/02 07:35:28;;;;;;;17.77;14.60;;;9.20;99.90;;;;;;5016921;28;20046;-87
2023/02/02 07:37:55;;;;;;;21.90;15.25;;;9.10;99.90;;;;;;5016410;28;20506;-85
2023/02/02 07:40:21;;;;;;;20.80;16.40;;;9.10;99.90;;;;;;5014435;28;20471;-84
2023/02/02 07:42:47;;;;;;;20.42;16.83;;;9.10;99.90;;;;;;5013040;28;20025;-83
2023/02/02 07:45:14;;;;;;;16.60;14.70;;;9.10;99.90;;;;;;5008333;28;20033;-84
2023/02/02 07:47:40;;;;;;;18.50;15.13;;;9.20;99.90;;;;;;5012170;28;20510;-85
2023/02/02 07:50:06;;;;;;;33.05;16.33;;;9.10;99.90;;;;;;5016927;28;20049;-85
2023/02/02 07:52:33;;;;;;;17.17;15.23;;;9.10;99.90;;;;;;5016342;28;20041;-85
2023/02/02 07:54:59;;;;;;;20.35;15.43;;;9.20;99.90;;;;;;4998629;28;20792;-84
2023/02/02 07:57:25;;;;;;;15.93;13.88;;;9.20;99.90;;;;;;5010622;28;20053;-86
2023/02/02 07:59:52;;;;;;;22.45;15.00;;;9.20;99.90;;;;;;5014038;28;20022;-87
2023/02/02 08:02:18;;;;;;;19.58;15.45;;;9.20;99.90;;;;;;5014161;28;20511;-89
2023/02/02 08:04:46;;;;;;;19.65;15.30;;;9.20;99.90;;;;;;5015743;28;20046;-88
2023/02/02 08:07:12;;;;;;;19.65;16.17;;;9.10;99.90;;;;;;5033197;28;20041;-87
2023/02/02 08:09:38;;;;;;;20.75;14.57;;;9.20;99.90;;;;;;5014289;28;20394;-86
2023/02/02 08:12:04;;;;;;;21.75;13.98;;;9.20;99.90;;;;;;5012271;28;20045;-86
2023/02/02 08:14:31;;;;;;;19.63;17.60;;;9.20;99.90;;;;;;5015916;28;20493;-86
2023/02/02 08:16:57;;;;;;;23.83;16.45;;;9.10;99.90;;;;;;5011636;28;20049;-86
2023/02/02 08:19:23;;;;;;;16.75;14.30;;;9.10;99.90;;;;;;5000870;28;20040;-88
2023/02/02 08:21:49;;;;;;;19.17;14.63;;;9.10;99.90;;;;;;5011895;28;20042;-89
2023/02/02 08:24:15;;;;;;;19.80;14.23;;;9.10;99.90;;;;;;5015815;28;20034;-84
2023/02/02 08:26:41;;;;;;;19.75;15.50;;;9.00;99.90;;;;;;5016546;28;20041;-88
2023/02/02 08:29:07;;;;;;;27.48;13.95;;;8.90;99.90;;;;;;5029672;28;20472;-91
2023/02/02 08:31:35;;;;;;;24.77;16.77;;;9.00;99.90;;;;;;4998109;28;20030;-87
2023/02/02 08:34:02;;;;;;;16.20;14.65;;;9.10;99.90;;;;;;5006228;28;20398;-87
2023/02/02 08:36:29;;;;;;;20.33;14.32;;;9.20;99.90;;;;;;5016031;28;20037;-87
2023/02/02 08:38:58;;;;;;;18.10;13.68;;;9.30;99.90;;;;;;5009345;28;20042;-86
2023/02/02 08:41:24;;;;;;;17.20;13.52;;;9.30;99.90;;;;;;5032591;28;20026;-85
2023/02/02 08:43:50;;;;;;;17.80;14.27;;;9.30;99.90;;;;;;5033019;28;20033;-86
2023/02/02 08:46:17;;;;;;;16.85;14.27;;;9.30;99.90;;;;;;5032558;28;20034;-90
2023/02/02 08:48:43;;;;;;;15.73;13.75;;;9.20;99.90;;;;;;5033141;28;20040;-89
2023/02/02 08:51:11;;;;;;;17.48;13.60;;;9.30;99.90;;;;;;5016035;28;20052;-89
2023/02/02 08:53:37;;;;;;;14.95;13.27;;;9.30;99.90;;;;;;5017007;28;20037;-88
2023/02/02 08:56:11;;;;;;;18.10;14.50;;;9.20;99.90;;;;;;5017540;28;20059;-92
2023/02/02 08:58:37;;;;;;;16.83;13.80;;;9.30;99.90;;;;;;5018611;28;20038;-92
2023/02/02 09:01:10;;;;;;;19.13;13.73;;;9.30;99.90;;;;;;5016524;28;20025;-90
2023/02/02 09:03:39;;;;;;;20.77;14.30;;;9.40;99.90;;;;;;5016902;28;20032;-90
2023/02/02 09:06:06;;;;;;;20.52;13.98;;;9.30;99.90;;;;;;5015835;28;20033;-88
2023/02/02 09:08:32;;;;;;;15.57;13.93;;;9.30;99.90;;;;;;4997943;28;20052;-85
2023/02/02 09:11:03;;;;;;;19.60;13.45;;;9.40;99.90;;;;;;5016098;28;20029;-87
2023/02/02 09:13:29;;;;;;;20.05;14.90;;;9.40;99.90;;;;;;5016002;28;20033;-87
2023/02/02 09:15:59;;;;;;;24.88;16.15;;;9.40;99.90;;;;;;5014844;28;20034;-87
2023/02/02 09:18:25;;;;;;;17.60;15.32;;;9.40;99.90;;;;;;5016279;28;20034;-88
2023/02/02 09:20:51;;;;;;;19.00;15.45;;;9.50;99.90;;;;;;5015501;28;20367;-88
2023/02/02 09:23:17;;;;;;;20.38;14.40;;;9.50;99.90;;;;;;5032043;28;20048;-87
2023/02/02 09:25:43;;;;;;;19.52;15.48;;;9.50;99.90;;;;;;5015577;28;20045;-89
2023/02/02 09:28:09;;;;;;;16.55;14.95;;;9.50;99.90;;;;;;5031848;28;20482;-88
2023/02/02 09:30:36;;;;;;;26.85;20.65;;;9.60;99.90;;;;;;5032609;28;20049;-87
2023/02/02 09:33:02;;;;;;;26.88;18.70;;;9.60;99.90;;;;;;5021354;28;20487;-86
2023/02/02 09:35:28;;;;;;;20.40;16.83;;;9.60;99.90;;;;;;5028172;28;20034;-86
2023/02/02 09:37:54;;;;;;;18.40;14.80;;;9.60;99.90;;;;;;5014162;28;20042;-85
2023/02/02 09:40:20;;;;;;;25.38;15.77;;;9.70;99.90;;;;;;4999233;28;20477;-87
2023/02/02 09:42:52;;;;;;;17.85;15.25;;;9.70;99.90;;;;;;4999296;28;20040;-88
2023/02/02 09:45:25;;;;;;;18.13;15.45;;;9.80;99.90;;;;;;5020188;28;20030;-88
2023/02/02 09:47:57;;;;;;;22.00;16.85;;;9.80;99.90;;;;;;5008893;28;20475;-90
2023/02/02 09:50:45;;;;;;;18.63;16.08;;;9.80;99.90;;;;;;5015394;28;20033;-89
2023/02/02 09:53:31;;;;;;;16.80;15.15;;;9.90;99.90;;;;;;5015171;28;20030;-85
2023/02/02 09:55:58;;;;;;;19.65;15.88;;;9.90;99.90;;;;;;5014780;28;20030;-89
2023/02/02 09:58:26;;;;;;;18.85;15.90;;;9.90;99.90;;;;;;5017708;28;20065;-88
2023/02/02 10:01:03;;;;;;;19.50;15.48;;;9.90;99.90;;;;;;5009831;28;20041;-86
2023/02/02 10:03:32;;;;;;;21.60;16.50;;;10.00;99.90;;;;;;5014622;28;20029;-87
2023/02/02 10:06:28;;;;;;;17.92;15.32;;;10.00;99.90;;;;;;5029909;28;20052;-87
2023/02/02 10:08:57;;;;;;;18.85;14.93;;;10.00;99.90;;;;;;4994847;28;20045;-88
2023/02/02 10:11:34;;;;;;;19.27;14.38;;;10.00;99.90;;;;;;4984351;28;20507;-88
2023/02/02 10:14:04;;;;;;;20.00;15.90;;;10.00;99.90;;;;;;5026209;28;20034;-86
2023/02/02 10:16:30;;;;;;;18.67;15.77;;;9.90;99.90;;;;;;5013120;28;20045;-86
2023/02/02 10:19:00;;;;;;;20.20;14.38;;;10.00;99.90;;;;;;5011493;28;20026;-85
2023/02/02 10:21:34;;;;;;;18.67;16.00;;;10.00;99.90;;;;;;5009442;28;20040;-87
2023/02/02 10:24:02;;;;;;;20.02;14.95;;;10.00;99.90;;;;;;5014156;28;20038;-86
2023/02/02 10:26:47;;;;;;;23.55;16.60;;;10.10;99.90;;;;;;5028431;28;20037;-88
2023/02/02 10:29:22;;;;;;;17.73;15.88;;;10.10;99.90;;;;;;5008924;28;20041;-86
2023/02/02 10:32:21;;;;;;;20.73;16.13;;;10.20;99.90;;;;;;5010464;28;20042;-86
2023/02/02 10:34:59;;;;;;;25.27;16.55;;;10.30;99.90;;;;;;5027789;28;20026;-84
2023/02/02 10:37:59;;;;;;;23.13;15.63;;;10.30;99.90;;;;;;5032152;28;20033;-85
2023/02/02 10:40:28;;;;;;;18.77;15.45;;;10.40;99.90;;;;;;5011238;28;20029;-85
2023/02/02 10:45:54;;;;;;;20.38;15.02;;;10.40;99.90;;;;;;5027676;28;20056;-86
2023/02/02 10:48:22;;;;;;;17.90;14.90;;;10.60;99.90;;;;;;5008722;28;20040;-85
2023/02/02 10:50:53;;;;;;;18.75;14.55;;;10.60;99.90;;;;;;4998981;28;20022;-86
2023/02/02 10:53:19;;;;;;;;;;;10.60;99.90;;;;;;4990471;28;20398;-87
2023/02/02 10:55:50;;;;;;;19.30;17.70;;;10.60;99.90;;;;;;5030154;28;19905;-86
2023/02/02 10:58:50;;;;;;;19.08;17.30;;;10.60;99.90;;;;;;5007637;28;20061;-83
2023/02/02 11:01:16;;;;;;;23.38;17.27;;;10.60;99.90;;;;;;5016198;28;20034;-84
2023/02/02 11:03:42;;;;;;;19.83;16.70;;;10.70;99.90;;;;;;5002597;28;20486;-85
2023/02/02 11:09:03;;;;;;;20.65;15.27;;;10.60;99.90;;;;;;5004482;28;20505;-85
2023/02/02 11:11:41;;;;;;;23.13;17.10;;;10.50;99.90;;;;;;5027220;28;20450;-86
2023/02/02 11:14:07;;;;;;;20.65;16.75;;;10.50;99.90;;;;;;4999871;28;20022;-88
2023/02/02 11:16:39;;;;;;;19.85;18.02;;;10.60;99.90;;;;;;5018595;28;20061;-88
2023/02/02 11:19:18;;;;;;;22.13;19.75;;;10.60;99.90;;;;;;4998599;28;20033;-84
2023/02/02 11:21:45;;;;;;;20.58;17.90;;;10.70;99.90;;;;;;5030176;28;20046;-84
2023/02/02 11:24:20;;;;;;;20.38;17.23;;;10.70;99.90;;;;;;5014758;28;20033;-84
2023/02/02 11:26:55;;;;;;;20.30;18.50;;;10.80;99.90;;;;;;5031951;28;20487;-84
2023/02/02 11:29:36;;;;;;;19.58;17.50;;;10.90;99.90;;;;;;5000511;28;20040;-86
2023/02/02 11:32:28;;;;;;;19.63;17.93;;;10.90;99.90;;;;;;5013094;28;20395;-86
2023/02/02 11:35:07;;;;;;;19.52;17.45;;;10.90;99.90;;;;;;5026760;28;20045;-84
2023/02/02 11:37:33;;;;;;;19.38;17.40;;;10.90;99.90;;;;;;5022167;28;20053;-86
2023/02/02 11:40:22;;;;;;;20.65;18.52;;;10.80;99.90;;;;;;4988441;28;20038;-84
2023/02/02 11:42:49;;;;;;;20.33;18.30;;;10.80;99.90;;;;;;5025953;28;20036;-88
2023/02/02 11:45:17;;;;;;;25.63;19.58;;;10.80;99.90;;;;;;5011937;28;20395;-85
2023/02/02 11:47:43;;;;;;;20.10;18.35;;;10.90;99.90;;;;;;5010185;28;20038;-83
2023/02/02 11:50:22;;;;;;;17.90;16.30;;;10.90;99.90;;;;;;4998536;28;20495;-82
2023/02/02 11:52:48;;;;;;;20.13;18.02;;;10.90;99.90;;;;;;4998057;28;20053;-83
2023/02/02 11:55:16;;;;;;;25.60;22.85;;;11.10;99.90;;;;;;4996955;28;21158;-82
2023/02/02 11:58:17;;;;;;;22.83;20.60;;;11.10;99.90;;;;;;5008536;28;20037;-87
2023/02/02 12:00:59;;;;;;;19.73;17.98;;;11.00;99.90;;;;;;5009754;28;20038;-83
2023/02/02 12:03:26;;;;;;;19.85;17.73;;;11.10;99.90;;;;;;5000987;28;20037;-83
2023/02/02 12:05:52;;;;;;;21.40;19.45;;;11.00;99.90;;;;;;5015491;28;20056;-82
2023/02/02 12:08:19;;;;;;;23.08;17.58;;;11.00;99.90;;;;;;5016633;28;20026;-83
2023/02/02 12:10:57;;;;;;;19.45;17.42;;;11.00;99.90;;;;;;5010697;28;20025;-83
2023/02/02 12:13:29;;;;;;;19.55;17.63;;;11.10;99.90;;;;;;5016343;28;20034;-84
2023/02/02 12:16:24;;;;;;;19.20;17.80;;;11.10;99.90;;;;;;5014844;28;20486;-83
2023/02/02 12:19:24;;;;;;;23.77;18.60;;;11.10;99.90;;;;;;5026561;28;20037;-83
2023/02/02 12:21:55;;;;;;;19.92;18.45;;;11.00;99.90;;;;;;5034180;28;20494;-83
2023/02/02 12:24:36;;;;;;;22.35;18.35;;;11.10;99.90;;;;;;5015783;28;20521;-83
2023/02/02 12:27:40;;;;;;;18.98;15.57;;;11.10;99.90;;;;;;5007971;28;20601;-83
2023/02/02 12:30:31;;;;;;;20.90;16.58;;;11.20;99.90;;;;;;5019334;28;20032;-82
2023/02/02 12:33:06;;;;;;;18.38;16.55;;;11.20;99.90;;;;;;4998973;28;20068;-84
2023/02/02 12:35:51;;;;;;;19.60;17.55;;;11.20;99.90;;;;;;5016150;28;20032;-83
2023/02/02 12:38:56;;;;;;;18.90;17.10;;;11.20;99.90;;;;;;4998359;28;20053;-83
2023/02/02 12:41:47;;;;;;;22.15;16.92;;;11.20;99.90;;;;;;4953392;29;20034;-84
2023/02/02 12:44:18;;;;;;;19.92;17.88;;;11.20;99.90;;;;;;4952393;29;20043;-83
2023/02/02 12:47:13;;;;;;;18.23;16.38;;;11.20;99.90;;;;;;4953068;28;20512;-84
2023/02/02 12:50:23;;;;;;;17.48;15.73;;;11.20;99.90;;;;;;4914847;29;20040;-84
2023/02/02 12:53:20;;;;;;;20.50;16.27;;;11.20;99.90;;;;;;4914143;29;20028;-84
2023/02/02 12:56:16;;;;;;;21.25;16.75;;;11.20;99.90;;;;;;4907634;29;20056;-84
2023/02/02 12:59:24;;;;;;;18.38;16.58;;;11.30;99.90;;;;;;4896521;29;20063;-83
2023/02/02 13:02:26;;;;;;;18.42;16.08;;;11.30;99.90;;;;;;4897764;29;20039;-86
2023/02/02 13:04:58;;;;;;;20.48;18.33;;;11.30;99.90;;;;;;4914323;29;20067;-84
2023/02/02 13:07:31;;;;;;;23.30;18.50;;;11.30;99.90;;;;;;4902018;29;20601;-84
2023/02/02 13:10:00;;;;;;;17.90;15.55;;;11.40;99.90;;;;;;4895896;29;20446;-84